sensor_id;sensor_type;location;lat;lon;timestamp;P1;durP1;ratioP1;P2;durP2;ratioP2
49444;SDS011;35323;43.080;-81.378;2022-08-30T00:00:48;3.53;;;1.70;;
49444;SDS011;35323;43.080;-81.378;2022-08-30T00:03:32;2.13;;;1.48;;
49444;SDS011;35323;43.080;-81.378;2022-08-30T00:06:01;4.55;;;2.95;;
49444;SDS011;35323;43.080;-81.378;2022-08-30T00:08:29;3.50;;;2.95;;
49444;SDS011;35323;43.080;-81.378;2022-08-30T00:10:56;7.30;;;2.65;;
49444;SDS011;35323;43.080;-81.378;2022-08-30T00:13:24;5.70;;;2.10;;
49444;SDS011;35323;43.080;-81.378;2022-08-30T00:15:52;2.85;;;1.70;;
49444;SDS011;35323;43.080;-81.378;2022-08-30T00:18:20;3.30;;;2.00;;
49444;SDS011;35323;43.080;-81.378;2022-08-30T00:20:50;6.03;;;2.28;;
49444;SDS011;35323;43.080;-81.378;2022-08-30T00:23:18;2.80;;;2.22;;
49444;SDS011;35323;43.080;-81.378;2022-08-30T00:25:46;2.90;;;2.45;;
49444;SDS011;35323;43.080;-81.378;2022-08-30T00:28:14;4.75;;;1.90;;
49444;SDS011;35323;43.080;-81.378;2022-08-30T00:30:43;3.15;;;2.85;;
49444;SDS011;35323;43.080;-81.378;2022-08-30T00:33:11;4.65;;;2.30;;
49444;SDS011;35323;43.080;-81.378;2022-08-30T00:35:39;4.05;;;3.25;;
49444;SDS011;35323;43.080;-81.378;2022-08-30T00:38:07;4.32;;;2.70;;
49444;SDS011;35323;43.080;-81.378;2022-08-30T00:40:35;2.58;;;2.15;;
49444;SDS011;35323;43.080;-81.378;2022-08-30T00:43:05;3.13;;;2.35;;
49444;SDS011;35323;43.080;-81.378;2022-08-30T00:45:39;3.58;;;2.53;;
49444;SDS011;35323;43.080;-81.378;2022-08-30T00:48:07;4.03;;;2.53;;
49444;SDS011;35323;43.080;-81.378;2022-08-30T00:50:36;2.40;;;2.20;;
49444;SDS011;35323;43.080;-81.378;2022-08-30T00:53:11;3.22;;;2.63;;
49444;SDS011;35323;43.080;-81.378;2022-08-30T00:55:40;2.78;;;2.45;;
49444;SDS011;35323;43.080;-81.378;2022-08-30T00:58:11;3.08;;;2.47;;
49444;SDS011;35323;43.080;-81.378;2022-08-30T01:00:39;3.70;;;2.85;;
49444;SDS011;35323;43.080;-81.378;2022-08-30T01:03:07;2.90;;;2.53;;
49444;SDS011;35323;43.080;-81.378;2022-08-30T01:05:36;5.50;;;3.35;;
49444;SDS011;35323;43.080;-81.378;2022-08-30T01:08:04;7.22;;;2.28;;
49444;SDS011;35323;43.080;-81.378;2022-08-30T01:10:33;2.28;;;2.03;;
49444;SDS011;35323;43.080;-81.378;2022-08-30T01:13:01;2.70;;;2.50;;
49444;SDS011;35323;43.080;-81.378;2022-08-30T01:15:29;2.95;;;2.50;;
49444;SDS011;35323;43.080;-81.378;2022-08-30T01:17:59;2.97;;;2.60;;
49444;SDS011;35323;43.080;-81.378;2022-08-30T01:20:29;7.90;;;3.10;;
49444;SDS011;35323;43.080;-81.378;2022-08-30T01:23:09;2.30;;;2.03;;
49444;SDS011;35323;43.080;-81.378;2022-08-30T01:25:39;2.20;;;2.00;;
49444;SDS011;35323;43.080;-81.378;2022-08-30T01:28:09;3.97;;;3.40;;
49444;SDS011;35323;43.080;-81.378;2022-08-30T01:30:38;2.20;;;2.00;;
49444;SDS011;35323;43.080;-81.378;2022-08-30T01:33:09;3.40;;;1.83;;
49444;SDS011;35323;43.080;-81.378;2022-08-30T01:36:11;3.28;;;2.15;;
49444;SDS011;35323;43.080;-81.378;2022-08-30T01:38:35;4.45;;;2.20;;
49444;SDS011;35323;43.080;-81.378;2022-08-30T01:41:24;3.03;;;2.78;;
49444;SDS011;35323;43.080;-81.378;2022-08-30T01:43:52;4.20;;;3.80;;
49444;SDS011;35323;43.080;-81.378;2022-08-30T01:46:22;4.75;;;2.33;;
49444;SDS011;35323;43.080;-81.378;2022-08-30T01:48:51;4.45;;;2.53;;
49444;SDS011;35323;43.080;-81.378;2022-08-30T01:51:20;2.92;;;2.63;;
49444;SDS011;35323;43.080;-81.378;2022-08-30T01:53:51;3.97;;;2.58;;
49444;SDS011;35323;43.080;-81.378;2022-08-30T01:56:22;2.50;;;2.30;;
49444;SDS011;35323;43.080;-81.378;2022-08-30T01:58:50;3.05;;;2.70;;
49444;SDS011;35323;43.080;-81.378;2022-08-30T02:01:19;4.38;;;3.17;;
49444;SDS011;35323;43.080;-81.378;2022-08-30T02:03:48;3.05;;;2.58;;
49444;SDS011;35323;43.080;-81.378;2022-08-30T02:06:16;3.47;;;2.83;;
49444;SDS011;35323;43.080;-81.378;2022-08-30T02:08:45;5.05;;;2.80;;
49444;SDS011;35323;43.080;-81.378;2022-08-30T02:11:13;3.60;;;2.67;;
49444;SDS011;35323;43.080;-81.378;2022-08-30T02:13:41;4.65;;;3.13;;
49444;SDS011;35323;43.080;-81.378;2022-08-30T02:16:11;2.95;;;2.38;;
49444;SDS011;35323;43.080;-81.378;2022-08-30T02:18:39;3.03;;;2.20;;
49444;SDS011;35323;43.080;-81.378;2022-08-30T02:21:07;2.80;;;2.50;;
49444;SDS011;35323;43.080;-81.378;2022-08-30T02:23:35;3.45;;;2.13;;
49444;SDS011;35323;43.080;-81.378;2022-08-30T02:26:02;2.58;;;1.83;;
49444;SDS011;35323;43.080;-81.378;2022-08-30T02:28:30;3.38;;;2.47;;
49444;SDS011;35323;43.080;-81.378;2022-08-30T02:31:15;3.55;;;3.13;;
49444;SDS011;35323;43.080;-81.378;2022-08-30T02:33:46;4.70;;;2.30;;
49444;SDS011;35323;43.080;-81.378;2022-08-30T02:36:14;3.17;;;2.80;;
49444;SDS011;35323;43.080;-81.378;2022-08-30T02:38:42;2.35;;;2.03;;
49444;SDS011;35323;43.080;-81.378;2022-08-30T02:41:09;4.15;;;2.67;;
49444;SDS011;35323;43.080;-81.378;2022-08-30T02:43:37;4.75;;;2.67;;
49444;SDS011;35323;43.080;-81.378;2022-08-30T02:46:05;4.40;;;2.72;;
49444;SDS011;35323;43.080;-81.378;2022-08-30T02:48:32;3.15;;;2.13;;
49444;SDS011;35323;43.080;-81.378;2022-08-30T02:51:06;2.28;;;2.08;;
49444;SDS011;35323;43.080;-81.378;2022-08-30T02:53:37;3.08;;;2.60;;
49444;SDS011;35323;43.080;-81.378;2022-08-30T02:56:05;3.95;;;2.65;;
49444;SDS011;35323;43.080;-81.378;2022-08-30T02:58:32;3.20;;;2.78;;
49444;SDS011;35323;43.080;-81.378;2022-08-30T03:01:00;3.67;;;3.20;;
49444;SDS011;35323;43.080;-81.378;2022-08-30T03:03:27;2.95;;;2.67;;
49444;SDS011;35323;43.080;-81.378;2022-08-30T03:05:55;4.90;;;4.13;;
49444;SDS011;35323;43.080;-81.378;2022-08-30T03:08:22;3.58;;;3.28;;
49444;SDS011;35323;43.080;-81.378;2022-08-30T03:10:50;3.00;;;2.58;;
49444;SDS011;35323;43.080;-81.378;2022-08-30T03:13:18;2.63;;;2.40;;
49444;SDS011;35323;43.080;-81.378;2022-08-30T03:15:46;4.15;;;3.00;;
49444;SDS011;35323;43.080;-81.378;2022-08-30T03:18:16;3.92;;;2.85;;
49444;SDS011;35323;43.080;-81.378;2022-08-30T03:20:44;2.75;;;2.53;;
49444;SDS011;35323;43.080;-81.378;2022-08-30T03:23:20;5.57;;;3.75;;
49444;SDS011;35323;43.080;-81.378;2022-08-30T03:25:48;4.70;;;2.67;;
49444;SDS011;35323;43.080;-81.378;2022-08-30T03:28:16;4.40;;;3.20;;
49444;SDS011;35323;43.080;-81.378;2022-08-30T03:30:43;3.88;;;2.53;;
49444;SDS011;35323;43.080;-81.378;2022-08-30T03:33:11;2.92;;;2.63;;
49444;SDS011;35323;43.080;-81.378;2022-08-30T03:35:39;2.70;;;1.90;;
49444;SDS011;35323;43.080;-81.378;2022-08-30T03:38:06;3.13;;;1.90;;
49444;SDS011;35323;43.080;-81.378;2022-08-30T03:40:34;3.78;;;2.03;;
49444;SDS011;35323;43.080;-81.378;2022-08-30T03:43:03;6.28;;;1.73;;
49444;SDS011;35323;43.080;-81.378;2022-08-30T03:45:31;4.13;;;2.20;;
49444;SDS011;35323;43.080;-81.378;2022-08-30T03:48:00;4.63;;;3.95;;
49444;SDS011;35323;43.080;-81.378;2022-08-30T03:50:30;2.78;;;2.42;;
49444;SDS011;35323;43.080;-81.378;2022-08-30T03:52:59;2.30;;;2.10;;
49444;SDS011;35323;43.080;-81.378;2022-08-30T03:55:28;2.25;;;2.05;;
49444;SDS011;35323;43.080;-81.378;2022-08-30T03:57:56;2.40;;;1.50;;
49444;SDS011;35323;43.080;-81.378;2022-08-30T04:00:24;2.72;;;1.70;;
49444;SDS011;35323;43.080;-81.378;2022-08-30T04:02:52;4.10;;;3.22;;
49444;SDS011;35323;43.080;-81.378;2022-08-30T04:05:19;2.08;;;1.92;;
49444;SDS011;35323;43.080;-81.378;2022-08-30T04:07:47;2.63;;;1.83;;
49444;SDS011;35323;43.080;-81.378;2022-08-30T04:10:15;2.88;;;1.73;;
49444;SDS011;35323;43.080;-81.378;2022-08-30T04:12:43;2.55;;;1.77;;
49444;SDS011;35323;43.080;-81.378;2022-08-30T04:15:16;1.83;;;1.73;;
49444;SDS011;35323;43.080;-81.378;2022-08-30T04:17:44;2.65;;;1.63;;
49444;SDS011;35323;43.080;-81.378;2022-08-30T04:20:11;6.03;;;2.45;;
49444;SDS011;35323;43.080;-81.378;2022-08-30T04:22:39;5.40;;;1.33;;
49444;SDS011;35323;43.080;-81.378;2022-08-30T04:25:11;2.35;;;1.80;;
49444;SDS011;35323;43.080;-81.378;2022-08-30T04:27:41;2.05;;;1.95;;
49444;SDS011;35323;43.080;-81.378;2022-08-30T04:30:10;1.50;;;1.40;;
49444;SDS011;35323;43.080;-81.378;2022-08-30T04:32:38;3.47;;;2.15;;
49444;SDS011;35323;43.080;-81.378;2022-08-30T04:35:06;3.80;;;2.97;;
49444;SDS011;35323;43.080;-81.378;2022-08-30T04:37:34;2.30;;;2.03;;
49444;SDS011;35323;43.080;-81.378;2022-08-30T04:40:01;3.28;;;2.78;;
49444;SDS011;35323;43.080;-81.378;2022-08-30T04:42:30;2.35;;;1.80;;
49444;SDS011;35323;43.080;-81.378;2022-08-30T04:45:00;5.40;;;2.58;;
49444;SDS011;35323;43.080;-81.378;2022-08-30T04:47:27;3.15;;;2.03;;
49444;SDS011;35323;43.080;-81.378;2022-08-30T04:49:56;2.45;;;2.08;;
49444;SDS011;35323;43.080;-81.378;2022-08-30T04:52:24;6.30;;;2.30;;
49444;SDS011;35323;43.080;-81.378;2022-08-30T04:54:55;1.55;;;1.42;;
49444;SDS011;35323;43.080;-81.378;2022-08-30T04:57:23;5.37;;;1.97;;
49444;SDS011;35323;43.080;-81.378;2022-08-30T04:59:51;3.58;;;2.38;;
49444;SDS011;35323;43.080;-81.378;2022-08-30T05:02:19;4.05;;;1.90;;
49444;SDS011;35323;43.080;-81.378;2022-08-30T05:04:47;2.70;;;1.83;;
49444;SDS011;35323;43.080;-81.378;2022-08-30T05:07:33;3.25;;;2.10;;
49444;SDS011;35323;43.080;-81.378;2022-08-30T05:10:01;2.58;;;2.38;;
49444;SDS011;35323;43.080;-81.378;2022-08-30T05:12:32;3.53;;;2.38;;
49444;SDS011;35323;43.080;-81.378;2022-08-30T05:14:59;4.20;;;2.45;;
49444;SDS011;35323;43.080;-81.378;2022-08-30T05:17:27;4.47;;;2.75;;
49444;SDS011;35323;43.080;-81.378;2022-08-30T05:19:54;4.00;;;2.65;;
49444;SDS011;35323;43.080;-81.378;2022-08-30T05:22:22;2.67;;;2.40;;
49444;SDS011;35323;43.080;-81.378;2022-08-30T05:24:50;3.28;;;2.55;;
49444;SDS011;35323;43.080;-81.378;2022-08-30T05:27:17;2.30;;;2.00;;
49444;SDS011;35323;43.080;-81.378;2022-08-30T05:29:45;2.95;;;2.63;;
49444;SDS011;35323;43.080;-81.378;2022-08-30T05:32:13;3.38;;;2.95;;
49444;SDS011;35323;43.080;-81.378;2022-08-30T05:34:40;5.00;;;2.55;;
49444;SDS011;35323;43.080;-81.378;2022-08-30T05:37:08;2.60;;;2.40;;
49444;SDS011;35323;43.080;-81.378;2022-08-30T05:39:37;4.38;;;3.20;;
49444;SDS011;35323;43.080;-81.378;2022-08-30T05:42:17;4.97;;;2.58;;
49444;SDS011;35323;43.080;-81.378;2022-08-30T05:44:45;4.57;;;2.17;;
49444;SDS011;35323;43.080;-81.378;2022-08-30T05:47:13;4.28;;;2.90;;
49444;SDS011;35323;43.080;-81.378;2022-08-30T05:49:41;7.45;;;3.15;;
49444;SDS011;35323;43.080;-81.378;2022-08-30T05:52:08;4.47;;;2.40;;
49444;SDS011;35323;43.080;-81.378;2022-08-30T05:54:36;2.45;;;1.85;;
49444;SDS011;35323;43.080;-81.378;2022-08-30T05:57:04;4.38;;;3.20;;
49444;SDS011;35323;43.080;-81.378;2022-08-30T05:59:31;4.70;;;2.25;;
49444;SDS011;35323;43.080;-81.378;2022-08-30T06:01:59;2.35;;;2.15;;
49444;SDS011;35323;43.080;-81.378;2022-08-30T06:04:27;2.78;;;2.22;;
49444;SDS011;35323;43.080;-81.378;2022-08-30T06:06:54;2.88;;;1.90;;
49444;SDS011;35323;43.080;-81.378;2022-08-30T06:09:22;2.35;;;1.92;;
49444;SDS011;35323;43.080;-81.378;2022-08-30T06:11:50;4.65;;;2.15;;
49444;SDS011;35323;43.080;-81.378;2022-08-30T06:14:17;1.83;;;1.73;;
49444;SDS011;35323;43.080;-81.378;2022-08-30T06:16:45;2.55;;;1.50;;
49444;SDS011;35323;43.080;-81.378;2022-08-30T06:19:13;2.75;;;1.98;;
49444;SDS011;35323;43.080;-81.378;2022-08-30T06:21:41;2.58;;;2.38;;
49444;SDS011;35323;43.080;-81.378;2022-08-30T06:24:09;3.55;;;3.25;;
49444;SDS011;35323;43.080;-81.378;2022-08-30T06:26:39;3.42;;;2.05;;
49444;SDS011;35323;43.080;-81.378;2022-08-30T06:29:08;5.00;;;3.40;;
49444;SDS011;35323;43.080;-81.378;2022-08-30T06:31:35;3.45;;;2.50;;
49444;SDS011;35323;43.080;-81.378;2022-08-30T06:34:03;6.55;;;3.38;;
49444;SDS011;35323;43.080;-81.378;2022-08-30T06:36:31;3.72;;;2.85;;
49444;SDS011;35323;43.080;-81.378;2022-08-30T06:39:00;2.88;;;2.55;;
49444;SDS011;35323;43.080;-81.378;2022-08-30T06:41:29;4.93;;;2.78;;
49444;SDS011;35323;43.080;-81.378;2022-08-30T06:43:59;5.15;;;2.70;;
49444;SDS011;35323;43.080;-81.378;2022-08-30T06:46:28;5.35;;;3.08;;
49444;SDS011;35323;43.080;-81.378;2022-08-30T06:48:56;3.63;;;2.47;;
49444;SDS011;35323;43.080;-81.378;2022-08-30T06:51:28;3.25;;;2.55;;
49444;SDS011;35323;43.080;-81.378;2022-08-30T06:53:56;4.18;;;2.22;;
49444;SDS011;35323;43.080;-81.378;2022-08-30T06:56:25;3.10;;;2.80;;
49444;SDS011;35323;43.080;-81.378;2022-08-30T06:58:53;3.03;;;2.72;;
49444;SDS011;35323;43.080;-81.378;2022-08-30T07:01:21;5.22;;;2.25;;
49444;SDS011;35323;43.080;-81.378;2022-08-30T07:03:50;5.03;;;3.22;;
49444;SDS011;35323;43.080;-81.378;2022-08-30T07:06:19;5.15;;;2.88;;
49444;SDS011;35323;43.080;-81.378;2022-08-30T07:08:47;2.00;;;1.63;;
49444;SDS011;35323;43.080;-81.378;2022-08-30T07:13:55;3.67;;;2.72;;
49444;SDS011;35323;43.080;-81.378;2022-08-30T07:16:24;3.30;;;2.85;;
49444;SDS011;35323;43.080;-81.378;2022-08-30T07:18:51;4.90;;;3.08;;
49444;SDS011;35323;43.080;-81.378;2022-08-30T07:23:50;4.50;;;2.38;;
49444;SDS011;35323;43.080;-81.378;2022-08-30T07:26:23;3.92;;;3.10;;
49444;SDS011;35323;43.080;-81.378;2022-08-30T07:28:52;2.58;;;1.67;;
49444;SDS011;35323;43.080;-81.378;2022-08-30T07:31:22;3.00;;;2.05;;
49444;SDS011;35323;43.080;-81.378;2022-08-30T07:33:50;3.72;;;3.38;;
49444;SDS011;35323;43.080;-81.378;2022-08-30T07:36:19;5.13;;;2.95;;
49444;SDS011;35323;43.080;-81.378;2022-08-30T07:43:51;2.47;;;2.08;;
49444;SDS011;35323;43.080;-81.378;2022-08-30T07:46:19;9.15;;;2.83;;
49444;SDS011;35323;43.080;-81.378;2022-08-30T07:56:52;2.95;;;2.67;;
49444;SDS011;35323;43.080;-81.378;2022-08-30T07:59:22;5.47;;;2.83;;
49444;SDS011;35323;43.080;-81.378;2022-08-30T08:01:50;2.55;;;2.28;;
49444;SDS011;35323;43.080;-81.378;2022-08-30T08:04:18;4.72;;;2.67;;
49444;SDS011;35323;43.080;-81.378;2022-08-30T08:06:45;5.05;;;2.65;;
49444;SDS011;35323;43.080;-81.378;2022-08-30T08:09:13;5.18;;;2.90;;
49444;SDS011;35323;43.080;-81.378;2022-08-30T08:14:35;5.28;;;3.17;;
49444;SDS011;35323;43.080;-81.378;2022-08-30T08:17:03;4.57;;;3.25;;
49444;SDS011;35323;43.080;-81.378;2022-08-30T08:19:31;6.63;;;2.78;;
49444;SDS011;35323;43.080;-81.378;2022-08-30T08:21:59;12.02;;;4.18;;
49444;SDS011;35323;43.080;-81.378;2022-08-30T08:24:46;4.30;;;3.20;;
49444;SDS011;35323;43.080;-81.378;2022-08-30T08:27:13;5.65;;;4.13;;
49444;SDS011;35323;43.080;-81.378;2022-08-30T08:29:42;3.60;;;2.83;;
49444;SDS011;35323;43.080;-81.378;2022-08-30T08:32:09;4.35;;;3.17;;
49444;SDS011;35323;43.080;-81.378;2022-08-30T08:34:37;5.35;;;2.67;;
49444;SDS011;35323;43.080;-81.378;2022-08-30T08:37:05;6.32;;;3.55;;
49444;SDS011;35323;43.080;-81.378;2022-08-30T08:39:34;7.25;;;4.75;;
49444;SDS011;35323;43.080;-81.378;2022-08-30T08:42:04;4.07;;;3.10;;
49444;SDS011;35323;43.080;-81.378;2022-08-30T08:44:49;2.60;;;2.40;;
49444;SDS011;35323;43.080;-81.378;2022-08-30T08:48:04;3.75;;;2.78;;
49444;SDS011;35323;43.080;-81.378;2022-08-30T08:50:14;5.30;;;3.33;;
49444;SDS011;35323;43.080;-81.378;2022-08-30T08:55:19;5.40;;;2.85;;
49444;SDS011;35323;43.080;-81.378;2022-08-30T08:57:48;4.53;;;3.45;;
49444;SDS011;35323;43.080;-81.378;2022-08-30T09:00:18;4.43;;;3.60;;
49444;SDS011;35323;43.080;-81.378;2022-08-30T09:02:52;4.53;;;2.80;;
49444;SDS011;35323;43.080;-81.378;2022-08-30T09:08:15;2.95;;;2.55;;
49444;SDS011;35323;43.080;-81.378;2022-08-30T09:10:54;5.35;;;4.13;;
49444;SDS011;35323;43.080;-81.378;2022-08-30T09:13:24;4.05;;;3.00;;
49444;SDS011;35323;43.080;-81.378;2022-08-30T09:15:53;5.18;;;2.33;;
49444;SDS011;35323;43.080;-81.378;2022-08-30T09:21:22;2.63;;;2.35;;
49444;SDS011;35323;43.080;-81.378;2022-08-30T09:23:55;6.88;;;3.13;;
49444;SDS011;35323;43.080;-81.378;2022-08-30T09:26:32;2.83;;;2.50;;
49444;SDS011;35323;43.080;-81.378;2022-08-30T09:29:00;5.57;;;2.75;;
49444;SDS011;35323;43.080;-81.378;2022-08-30T09:31:31;4.53;;;3.15;;
49444;SDS011;35323;43.080;-81.378;2022-08-30T09:34:00;4.40;;;2.15;;
49444;SDS011;35323;43.080;-81.378;2022-08-30T09:36:33;4.28;;;3.33;;
49444;SDS011;35323;43.080;-81.378;2022-08-30T09:39:06;3.70;;;2.53;;
49444;SDS011;35323;43.080;-81.378;2022-08-30T09:50:18;5.50;;;2.78;;
49444;SDS011;35323;43.080;-81.378;2022-08-30T09:53:12;3.15;;;2.47;;
49444;SDS011;35323;43.080;-81.378;2022-08-30T09:56:06;3.10;;;2.40;;
49444;SDS011;35323;43.080;-81.378;2022-08-30T09:58:54;5.30;;;2.55;;
49444;SDS011;35323;43.080;-81.378;2022-08-30T10:06:50;3.50;;;2.90;;
49444;SDS011;35323;43.080;-81.378;2022-08-30T10:16:58;6.75;;;3.20;;
49444;SDS011;35323;43.080;-81.378;2022-08-30T10:22:21;4.80;;;3.13;;
49444;SDS011;35323;43.080;-81.378;2022-08-30T10:30:37;4.97;;;3.85;;
49444;SDS011;35323;43.080;-81.378;2022-08-30T10:33:07;3.17;;;2.53;;
49444;SDS011;35323;43.080;-81.378;2022-08-30T10:40:34;6.97;;;2.92;;
49444;SDS011;35323;43.080;-81.378;2022-08-30T10:46:27;4.00;;;3.03;;
49444;SDS011;35323;43.080;-81.378;2022-08-30T10:54:10;5.55;;;4.15;;
49444;SDS011;35323;43.080;-81.378;2022-08-30T10:56:44;5.13;;;2.85;;
49444;SDS011;35323;43.080;-81.378;2022-08-30T10:59:17;6.30;;;3.53;;
49444;SDS011;35323;43.080;-81.378;2022-08-30T11:04:52;2.60;;;2.03;;
49444;SDS011;35323;43.080;-81.378;2022-08-30T11:12:59;3.60;;;2.97;;
49444;SDS011;35323;43.080;-81.378;2022-08-30T11:15:29;4.25;;;2.92;;
49444;SDS011;35323;43.080;-81.378;2022-08-30T11:18:02;7.80;;;4.10;;
49444;SDS011;35323;43.080;-81.378;2022-08-30T11:20:37;5.97;;;3.67;;
49444;SDS011;35323;43.080;-81.378;2022-08-30T11:33:47;3.67;;;3.13;;
49444;SDS011;35323;43.080;-81.378;2022-08-30T11:39:07;4.97;;;3.08;;
49444;SDS011;35323;43.080;-81.378;2022-08-30T11:44:24;5.13;;;3.03;;
49444;SDS011;35323;43.080;-81.378;2022-08-30T11:46:53;4.22;;;3.28;;
49444;SDS011;35323;43.080;-81.378;2022-08-30T11:57:14;4.82;;;3.30;;
49444;SDS011;35323;43.080;-81.378;2022-08-30T12:08:01;5.38;;;3.13;;
49444;SDS011;35323;43.080;-81.378;2022-08-30T12:11:03;5.60;;;3.83;;
49444;SDS011;35323;43.080;-81.378;2022-08-30T12:16:21;5.68;;;4.63;;
49444;SDS011;35323;43.080;-81.378;2022-08-30T12:18:52;7.05;;;3.53;;
49444;SDS011;35323;43.080;-81.378;2022-08-30T12:21:25;7.50;;;4.28;;
49444;SDS011;35323;43.080;-81.378;2022-08-30T12:29:16;4.88;;;3.92;;
49444;SDS011;35323;43.080;-81.378;2022-08-30T12:31:50;4.55;;;3.63;;
49444;SDS011;35323;43.080;-81.378;2022-08-30T12:34:21;4.65;;;4.25;;
49444;SDS011;35323;43.080;-81.378;2022-08-30T12:36:52;6.47;;;3.00;;
49444;SDS011;35323;43.080;-81.378;2022-08-30T12:39:22;3.75;;;3.20;;
49444;SDS011;35323;43.080;-81.378;2022-08-30T12:41:50;6.40;;;4.68;;
49444;SDS011;35323;43.080;-81.378;2022-08-30T12:44:22;5.30;;;4.05;;
49444;SDS011;35323;43.080;-81.378;2022-08-30T12:46:57;4.43;;;3.65;;
49444;SDS011;35323;43.080;-81.378;2022-08-30T12:49:29;4.57;;;3.58;;
49444;SDS011;35323;43.080;-81.378;2022-08-30T12:52:16;5.15;;;3.35;;
49444;SDS011;35323;43.080;-81.378;2022-08-30T12:54:45;6.35;;;4.50;;
49444;SDS011;35323;43.080;-81.378;2022-08-30T12:57:13;5.20;;;4.45;;
49444;SDS011;35323;43.080;-81.378;2022-08-30T13:00:01;6.97;;;4.78;;
49444;SDS011;35323;43.080;-81.378;2022-08-30T13:02:42;3.40;;;2.90;;
49444;SDS011;35323;43.080;-81.378;2022-08-30T13:05:27;7.40;;;4.90;;
49444;SDS011;35323;43.080;-81.378;2022-08-30T13:08:12;6.53;;;4.93;;
49444;SDS011;35323;43.080;-81.378;2022-08-30T13:11:23;4.57;;;3.53;;
49444;SDS011;35323;43.080;-81.378;2022-08-30T13:13:45;4.90;;;3.58;;
49444;SDS011;35323;43.080;-81.378;2022-08-30T13:18:49;5.10;;;3.88;;
49444;SDS011;35323;43.080;-81.378;2022-08-30T13:23:50;4.85;;;3.90;;
49444;SDS011;35323;43.080;-81.378;2022-08-30T13:26:19;5.77;;;4.27;;
49444;SDS011;35323;43.080;-81.378;2022-08-30T13:28:54;5.38;;;4.05;;
49444;SDS011;35323;43.080;-81.378;2022-08-30T13:31:22;4.25;;;3.80;;
49444;SDS011;35323;43.080;-81.378;2022-08-30T13:33:50;5.28;;;4.72;;
49444;SDS011;35323;43.080;-81.378;2022-08-30T13:36:24;6.30;;;4.15;;
49444;SDS011;35323;43.080;-81.378;2022-08-30T13:38:54;6.10;;;4.40;;
49444;SDS011;35323;43.080;-81.378;2022-08-30T13:41:22;6.38;;;5.75;;
49444;SDS011;35323;43.080;-81.378;2022-08-30T13:43:55;6.03;;;4.72;;
49444;SDS011;35323;43.080;-81.378;2022-08-30T13:46:42;4.72;;;4.18;;
49444;SDS011;35323;43.080;-81.378;2022-08-30T13:49:25;7.78;;;5.32;;
49444;SDS011;35323;43.080;-81.378;2022-08-30T13:52:11;5.65;;;4.72;;
49444;SDS011;35323;43.080;-81.378;2022-08-30T13:54:51;5.43;;;4.93;;
49444;SDS011;35323;43.080;-81.378;2022-08-30T13:57:21;4.73;;;4.20;;
49444;SDS011;35323;43.080;-81.378;2022-08-30T14:00:11;5.93;;;4.00;;
49444;SDS011;35323;43.080;-81.378;2022-08-30T14:02:40;4.78;;;4.28;;
49444;SDS011;35323;43.080;-81.378;2022-08-30T14:05:13;4.43;;;4.00;;
49444;SDS011;35323;43.080;-81.378;2022-08-30T14:08:00;7.80;;;4.78;;
49444;SDS011;35323;43.080;-81.378;2022-08-30T14:10:28;5.18;;;4.78;;
49444;SDS011;35323;43.080;-81.378;2022-08-30T14:12:57;5.15;;;3.78;;
49444;SDS011;35323;43.080;-81.378;2022-08-30T14:15:34;6.60;;;3.85;;
49444;SDS011;35323;43.080;-81.378;2022-08-30T14:18:05;8.57;;;4.85;;
49444;SDS011;35323;43.080;-81.378;2022-08-30T14:20:33;6.13;;;3.38;;
49444;SDS011;35323;43.080;-81.378;2022-08-30T14:23:05;7.07;;;4.25;;
49444;SDS011;35323;43.080;-81.378;2022-08-30T14:25:36;5.30;;;3.95;;
49444;SDS011;35323;43.080;-81.378;2022-08-30T14:28:06;4.45;;;4.05;;
49444;SDS011;35323;43.080;-81.378;2022-08-30T14:30:40;4.75;;;4.25;;
49444;SDS011;35323;43.080;-81.378;2022-08-30T14:33:08;4.43;;;4.03;;
49444;SDS011;35323;43.080;-81.378;2022-08-30T14:35:38;6.40;;;5.28;;
49444;SDS011;35323;43.080;-81.378;2022-08-30T14:38:06;5.63;;;5.13;;
49444;SDS011;35323;43.080;-81.378;2022-08-30T14:40:36;5.57;;;4.95;;
49444;SDS011;35323;43.080;-81.378;2022-08-30T14:43:04;6.25;;;5.28;;
49444;SDS011;35323;43.080;-81.378;2022-08-30T14:45:32;5.45;;;4.90;;
49444;SDS011;35323;43.080;-81.378;2022-08-30T14:48:00;5.45;;;4.90;;
49444;SDS011;35323;43.080;-81.378;2022-08-30T14:50:37;4.70;;;4.30;;
49444;SDS011;35323;43.080;-81.378;2022-08-30T14:53:05;5.57;;;4.93;;
49444;SDS011;35323;43.080;-81.378;2022-08-30T14:55:33;6.93;;;4.65;;
49444;SDS011;35323;43.080;-81.378;2022-08-30T14:58:01;5.35;;;4.53;;
49444;SDS011;35323;43.080;-81.378;2022-08-30T15:00:29;5.25;;;3.97;;
49444;SDS011;35323;43.080;-81.378;2022-08-30T15:02:57;6.10;;;4.65;;
49444;SDS011;35323;43.080;-81.378;2022-08-30T15:05:27;8.88;;;4.93;;
49444;SDS011;35323;43.080;-81.378;2022-08-30T15:07:55;5.43;;;3.70;;
49444;SDS011;35323;43.080;-81.378;2022-08-30T15:10:23;9.38;;;4.10;;
49444;SDS011;35323;43.080;-81.378;2022-08-30T15:12:52;5.25;;;4.78;;
49444;SDS011;35323;43.080;-81.378;2022-08-30T15:15:20;5.07;;;4.55;;
49444;SDS011;35323;43.080;-81.378;2022-08-30T15:17:48;6.18;;;4.50;;
49444;SDS011;35323;43.080;-81.378;2022-08-30T15:20:16;5.80;;;4.20;;
49444;SDS011;35323;43.080;-81.378;2022-08-30T15:22:46;4.15;;;3.75;;
49444;SDS011;35323;43.080;-81.378;2022-08-30T15:25:14;5.80;;;4.18;;
49444;SDS011;35323;43.080;-81.378;2022-08-30T15:27:42;4.53;;;4.13;;
49444;SDS011;35323;43.080;-81.378;2022-08-30T15:30:14;5.93;;;4.68;;
49444;SDS011;35323;43.080;-81.378;2022-08-30T15:32:46;5.32;;;4.10;;
49444;SDS011;35323;43.080;-81.378;2022-08-30T15:35:13;3.53;;;3.25;;
49444;SDS011;35323;43.080;-81.378;2022-08-30T15:37:41;6.10;;;4.28;;
49444;SDS011;35323;43.080;-81.378;2022-08-30T15:40:09;5.93;;;4.70;;
49444;SDS011;35323;43.080;-81.378;2022-08-30T15:42:38;6.50;;;5.63;;
49444;SDS011;35323;43.080;-81.378;2022-08-30T15:45:07;5.05;;;4.40;;
49444;SDS011;35323;43.080;-81.378;2022-08-30T15:47:36;6.35;;;4.13;;
49444;SDS011;35323;43.080;-81.378;2022-08-30T15:50:05;5.95;;;5.35;;
49444;SDS011;35323;43.080;-81.378;2022-08-30T15:52:33;7.78;;;4.95;;
49444;SDS011;35323;43.080;-81.378;2022-08-30T15:55:01;4.25;;;3.88;;
49444;SDS011;35323;43.080;-81.378;2022-08-30T15:57:28;5.47;;;4.82;;
49444;SDS011;35323;43.080;-81.378;2022-08-30T15:59:56;7.63;;;4.38;;
49444;SDS011;35323;43.080;-81.378;2022-08-30T16:02:24;4.97;;;4.47;;
49444;SDS011;35323;43.080;-81.378;2022-08-30T16:04:53;6.07;;;5.50;;
49444;SDS011;35323;43.080;-81.378;2022-08-30T16:07:20;5.40;;;4.80;;
49444;SDS011;35323;43.080;-81.378;2022-08-30T16:09:48;5.10;;;4.43;;
49444;SDS011;35323;43.080;-81.378;2022-08-30T16:12:16;7.13;;;4.68;;
49444;SDS011;35323;43.080;-81.378;2022-08-30T16:14:49;7.55;;;4.55;;
49444;SDS011;35323;43.080;-81.378;2022-08-30T16:17:17;4.15;;;3.67;;
49444;SDS011;35323;43.080;-81.378;2022-08-30T16:19:44;6.88;;;4.13;;
49444;SDS011;35323;43.080;-81.378;2022-08-30T16:22:12;5.00;;;4.43;;
49444;SDS011;35323;43.080;-81.378;2022-08-30T16:24:47;4.65;;;4.25;;
49444;SDS011;35323;43.080;-81.378;2022-08-30T16:27:15;5.85;;;5.05;;
49444;SDS011;35323;43.080;-81.378;2022-08-30T16:29:47;9.40;;;4.57;;
49444;SDS011;35323;43.080;-81.378;2022-08-30T16:32:15;5.75;;;4.50;;
49444;SDS011;35323;43.080;-81.378;2022-08-30T16:34:45;5.93;;;5.05;;
49444;SDS011;35323;43.080;-81.378;2022-08-30T16:37:12;4.80;;;4.28;;
49444;SDS011;35323;43.080;-81.378;2022-08-30T16:39:40;4.80;;;4.40;;
49444;SDS011;35323;43.080;-81.378;2022-08-30T16:42:12;5.05;;;4.57;;
49444;SDS011;35323;43.080;-81.378;2022-08-30T16:44:46;4.70;;;4.30;;
49444;SDS011;35323;43.080;-81.378;2022-08-30T16:47:15;6.25;;;5.72;;